Time;durP1;ratioP1;P1;durP2;ratioP2;P2;SDS_P1;SDS_P2;PMS_P1;PMS_P2;Temp;Humidity;BMP_temperature;BMP_pressure;BME280_temperature;BME280_humidity;BME280_pressure;Samples;Min_cycle;Max_cycle;Signal;HPM_P1;HPM_P2
2021/12/15 00:01:00;;;;;;;117.63;49.90;;;;;;;;;;5071877;28;20598;-70
2021/12/15 00:03:26;;;;;;;115.40;50.47;;;;;;;;;;5060282;28;20549;-70
2021/12/15 00:05:52;;;;;;;114.77;51.17;;;;;;;;;;5070834;28;20051;-70
2021/12/15 00:08:18;;;;;;;139.03;53.53;;;;;;;;;;5065972;28;20051;-70
2021/12/15 00:10:47;;;;;;;145.60;52.37;;;;;;;;;;5068294;28;20071;-71
2021/12/15 00:13:14;;;;;;;123.13;49.07;;;;;;;;;;5065455;28;20050;-70
2021/12/15 00:15:41;;;;;;;126.73;51.47;;;;;;;;;;5063239;28;20059;-70
2021/12/15 00:18:07;;;;;;;124.30;50.47;;;;;;;;;;5064045;28;20044;-70
2021/12/15 00:20:34;;;;;;;122.10;49.20;;;;;;;;;;5071143;28;20052;-70
2021/12/15 00:23:00;;;;;;;117.80;47.03;;;;;;;;;;5089969;28;20126;-69
2021/12/15 00:25:28;;;;;;;105.87;47.17;;;;;;;;;;5071492;28;20044;-70
2021/12/15 00:27:54;;;;;;;121.80;49.10;;;;;;;;;;5089267;28;20127;-70
2021/12/15 00:30:21;;;;;;;124.13;51.00;;;;;;;;;;5057887;28;20048;-70
2021/12/15 00:32:48;;;;;;;127.40;51.43;;;;;;;;;;5068085;28;20075;-70
2021/12/15 00:35:14;;;;;;;127.00;49.43;;;;;;;;;;5070681;28;20117;-70
2021/12/15 00:37:40;;;;;;;128.90;51.07;;;;;;;;;;5089085;28;20064;-70
2021/12/15 00:40:09;;;;;;;146.40;50.47;;;;;;;;;;5089079;28;20133;-70
2021/12/15 00:42:35;;;;;;;134.90;50.40;;;;;;;;;;5070641;28;20052;-70
2021/12/15 00:45:01;;;;;;;124.50;50.13;;;;;;;;;;5072145;28;20048;-70
2021/12/15 00:47:27;;;;;;;135.90;50.17;;;;;;;;;;5089074;28;20409;-70
2021/12/15 00:49:53;;;;;;;129.40;48.93;;;;;;;;;;5070698;28;20050;-70
2021/12/15 00:52:19;;;;;;;124.43;48.60;;;;;;;;;;5079510;28;20494;-70
2021/12/15 00:54:45;;;;;;;116.37;46.37;;;;;;;;;;5089263;28;20062;-70
2021/12/15 00:57:11;;;;;;;148.10;49.60;;;;;;;;;;5086989;28;20084;-70
2021/12/15 00:59:37;;;;;;;134.00;49.40;;;;;;;;;;5074659;28;20541;-71
2021/12/15 01:02:04;;;;;;;137.40;48.90;;;;;;;;;;5088306;28;20070;-70
2021/12/15 01:04:30;;;;;;;142.93;50.63;;;;;;;;;;5077516;28;20041;-70
2021/12/15 01:06:58;;;;;;;126.03;50.03;;;;;;;;;;5066683;28;20048;-70
2021/12/15 01:09:29;;;;;;;161.40;52.03;;;;;;;;;;5084932;28;20040;-69
2021/12/15 01:19:59;;;;;;;126.07;46.03;;;;;;;;;;5065719;28;20055;-70
2021/12/15 01:22:27;;;;;;;124.20;44.07;;;;;;;;;;5070994;28;20556;-70
2021/12/15 01:25:14;;;;;;;168.73;50.63;;;;;;;;;;5080528;28;20054;-70
2021/12/15 01:27:40;;;;;;;152.93;48.70;;;;;;;;;;5055094;28;20158;-70
2021/12/15 01:30:08;;;;;;;154.77;48.63;;;;;;;;;;5080477;28;20156;-70
2021/12/15 01:32:34;;;;;;;148.13;47.97;;;;;;;;;;5058950;28;20056;-70
2021/12/15 01:35:00;;;;;;;156.63;47.53;;;;;;;;;;5075357;28;20039;-70
2021/12/15 01:37:26;;;;;;;143.40;45.20;;;;;;;;;;5053040;28;20044;-70
2021/12/15 01:39:55;;;;;;;133.47;44.63;;;;;;;;;;5074605;28;20567;-70
2021/12/15 01:42:24;;;;;;;127.00;44.97;;;;;;;;;;5058394;28;20056;-70
2021/12/15 01:47:35;;;;;;;153.53;47.67;;;;;;;;;;5078822;28;20186;-70
2021/12/15 01:50:01;;;;;;;138.13;44.43;;;;;;;;;;5078597;28;20108;-70
2021/12/15 01:52:29;;;;;;;124.70;44.00;;;;;;;;;;5073170;28;20038;-70
2021/12/15 01:54:58;;;;;;;130.93;44.97;;;;;;;;;;5068369;28;20036;-69
2021/12/15 01:57:25;;;;;;;139.83;47.03;;;;;;;;;;5072662;28;20490;-69
2021/12/15 01:59:52;;;;;;;129.50;44.40;;;;;;;;;;5065285;28;20044;-70
2021/12/15 02:02:19;;;;;;;121.63;43.87;;;;;;;;;;5065405;28;20036;-70
2021/12/15 02:04:45;;;;;;;151.90;48.37;;;;;;;;;;5054588;28;20044;-70
2021/12/15 02:07:14;;;;;;;123.80;43.57;;;;;;;;;;5054676;28;20055;-69
2021/12/15 02:12:16;;;;;;;125.70;43.03;;;;;;;;;;5084699;28;20506;-70
2021/12/15 02:14:42;;;;;;;143.63;46.10;;;;;;;;;;5064938;28;20166;-70
2021/12/15 02:17:08;;;;;;;130.77;42.63;;;;;;;;;;5059189;28;20168;-70
2021/12/15 02:19:34;;;;;;;112.33;43.83;;;;;;;;;;5063984;28;20074;-70
2021/12/15 02:22:00;;;;;;;138.17;47.10;;;;;;;;;;5068661;28;20040;-69
2021/12/15 02:24:27;;;;;;;108.20;42.23;;;;;;;;;;5062234;28;20056;-70
2021/12/15 02:26:58;;;;;;;115.57;42.00;;;;;;;;;;5071858;28;20498;-70
2021/12/15 02:29:25;;;;;;;112.70;43.40;;;;;;;;;;5061727;28;20491;-70
2021/12/15 02:32:11;;;;;;;119.27;43.97;;;;;;;;;;5074849;28;20135;-69
2021/12/15 02:37:23;;;;;;;144.10;46.00;;;;;;;;;;5072162;28;20048;-70
2021/12/15 02:39:51;;;;;;;156.33;48.30;;;;;;;;;;5079742;28;20080;-70
2021/12/15 02:42:18;;;;;;;139.07;46.90;;;;;;;;;;5053889;28;20060;-70
2021/12/15 02:44:45;;;;;;;126.70;44.23;;;;;;;;;;5071184;28;20041;-70
2021/12/15 02:47:13;;;;;;;120.00;44.27;;;;;;;;;;5067722;28;20052;-69
2021/12/15 02:49:40;;;;;;;122.43;43.43;;;;;;;;;;5063989;28;20044;-70
2021/12/15 02:52:06;;;;;;;130.90;47.10;;;;;;;;;;5068631;28;20044;-70
2021/12/15 02:54:32;;;;;;;135.70;48.07;;;;;;;;;;5053465;28;20148;-70
2021/12/15 02:57:05;;;;;;;130.07;49.37;;;;;;;;;;5056570;28;20044;-70
2021/12/15 02:59:41;;;;;;;152.75;48.17;;;;;;;;;;5063193;28;20562;-70
2021/12/15 03:03:09;;;;;;;148.67;47.47;;;;;;;;;;5045995;28;20051;-70
2021/12/15 03:05:34;;;;;;;127.57;47.47;;;;;;;;;;5062524;28;20047;-70
2021/12/15 03:08:03;;;;;;;140.77;48.50;;;;;;;;;;5068996;28;20158;-70
2021/12/15 03:16:20;;;;;;;146.30;49.20;;;;;;;;;;4974694;28;20054;-70
2021/12/15 03:18:47;;;;;;;179.40;53.53;;;;;;;;;;4972906;28;20105;-70
2021/12/15 03:21:15;;;;;;;139.80;50.33;;;;;;;;;;5020224;28;20049;-70
2021/12/15 03:23:46;;;;;;;168.67;54.73;;;;;;;;;;5043142;28;20048;-71
2021/12/15 03:26:15;;;;;;;140.23;54.07;;;;;;;;;;5058078;28;20041;-70
2021/12/15 03:34:26;;;;;;;147.57;52.67;;;;;;;;;;5050712;28;20045;-70
2021/12/15 03:39:28;;;;;;;157.97;54.30;;;;;;;;;;5051597;28;20060;-70
2021/12/15 03:42:05;;;;;;;177.43;56.43;;;;;;;;;;5043383;28;20502;-70
2021/12/15 03:44:32;;;;;;;170.67;58.43;;;;;;;;;;5069490;28;20453;-71
2021/12/15 03:46:59;;;;;;;149.67;52.20;;;;;;;;;;5050880;28;20059;-70
2021/12/15 03:49:25;;;;;;;150.03;55.53;;;;;;;;;;5037967;28;20052;-70
2021/12/15 03:51:51;;;;;;;154.37;53.53;;;;;;;;;;5050045;28;20102;-70
2021/12/15 03:54:17;;;;;;;150.07;54.83;;;;;;;;;;5059941;28;20037;-70
2021/12/15 03:56:44;;;;;;;157.77;55.40;;;;;;;;;;5057466;28;20055;-71
2021/12/15 03:59:11;;;;;;;132.13;52.97;;;;;;;;;;5060376;28;20420;-70
2021/12/15 04:01:37;;;;;;;144.90;55.70;;;;;;;;;;5061220;28;20075;-70
2021/12/15 04:04:03;;;;;;;151.70;53.10;;;;;;;;;;5057372;28;20406;-70
2021/12/15 04:06:31;;;;;;;152.83;55.47;;;;;;;;;;5047114;28;20359;-70
2021/12/15 04:08:58;;;;;;;148.93;53.33;;;;;;;;;;5052217;28;20168;-70
2021/12/15 04:11:26;;;;;;;157.70;54.83;;;;;;;;;;5044320;28;20048;-71
2021/12/15 04:13:58;;;;;;;142.63;52.87;;;;;;;;;;5041229;28;20132;-70
2021/12/15 04:16:46;;;;;;;147.40;53.70;;;;;;;;;;5050645;28;20067;-70
2021/12/15 04:19:21;;;;;;;137.93;54.00;;;;;;;;;;5077490;28;20052;-70
2021/12/15 04:21:48;;;;;;;144.50;58.00;;;;;;;;;;5075748;28;20068;-70
2021/12/15 04:24:15;;;;;;;164.13;57.17;;;;;;;;;;5079161;28;20457;-70
2021/12/15 04:26:41;;;;;;;153.77;57.13;;;;;;;;;;5044362;28;20068;-70
2021/12/15 04:29:07;;;;;;;147.13;55.07;;;;;;;;;;5071044;28;20079;-70
2021/12/15 04:31:34;;;;;;;142.87;52.90;;;;;;;;;;5050961;28;20154;-70
2021/12/15 04:34:03;;;;;;;140.90;54.60;;;;;;;;;;5085990;28;20413;-70
2021/12/15 04:36:30;;;;;;;144.30;55.00;;;;;;;;;;5071179;28;20587;-70
2021/12/15 04:38:57;;;;;;;175.03;62.17;;;;;;;;;;5081226;28;20121;-71
2021/12/15 04:41:25;;;;;;;180.07;59.90;;;;;;;;;;5076767;28;20453;-70
2021/12/15 04:44:00;;;;;;;137.93;55.30;;;;;;;;;;5068761;28;20045;-71
2021/12/15 04:46:32;;;;;;;130.57;56.67;;;;;;;;;;5079668;28;20051;-70
2021/12/15 04:48:59;;;;;;;145.33;55.90;;;;;;;;;;5079795;28;20048;-70
2021/12/15 04:51:25;;;;;;;167.00;58.97;;;;;;;;;;5083125;28;20449;-70
2021/12/15 04:53:52;;;;;;;157.33;57.90;;;;;;;;;;5088068;28;20055;-70
2021/12/15 04:56:18;;;;;;;143.53;55.73;;;;;;;;;;5061223;28;20040;-70
2021/12/15 04:58:45;;;;;;;170.03;59.00;;;;;;;;;;5074852;28;20525;-70
2021/12/15 05:01:11;;;;;;;171.23;59.07;;;;;;;;;;5050733;28;20037;-70
2021/12/15 05:03:38;;;;;;;139.50;57.93;;;;;;;;;;5060965;28;20051;-70
2021/12/15 05:06:04;;;;;;;132.73;59.10;;;;;;;;;;5070512;28;20036;-71
2021/12/15 05:08:30;;;;;;;124.03;56.47;;;;;;;;;;5086914;28;20124;-70
2021/12/15 05:10:57;;;;;;;166.50;62.53;;;;;;;;;;5070647;28;20039;-70
2021/12/15 05:13:24;;;;;;;145.97;58.17;;;;;;;;;;5069261;28;20043;-70
2021/12/15 05:15:50;;;;;;;138.87;57.40;;;;;;;;;;5087643;28;20063;-70
2021/12/15 05:18:16;;;;;;;144.03;58.60;;;;;;;;;;5061603;28;20054;-71
2021/12/15 05:20:47;;;;;;;140.17;60.37;;;;;;;;;;5051802;28;20116;-70
2021/12/15 05:23:15;;;;;;;132.30;57.87;;;;;;;;;;5064239;28;20051;-70
2021/12/15 05:25:41;;;;;;;151.30;58.90;;;;;;;;;;5079688;28;20044;-70
2021/12/15 05:28:07;;;;;;;147.93;57.80;;;;;;;;;;5058030;28;20472;-70
2021/12/15 05:30:33;;;;;;;142.70;55.80;;;;;;;;;;5058946;28;20049;-70
2021/12/15 05:32:59;;;;;;;138.27;57.60;;;;;;;;;;5076440;28;20063;-70
2021/12/15 05:35:26;;;;;;;151.13;59.93;;;;;;;;;;5063639;28;20040;-70
2021/12/15 05:37:54;;;;;;;143.33;58.20;;;;;;;;;;5061391;28;20056;-70
2021/12/15 05:40:20;;;;;;;148.83;58.80;;;;;;;;;;5069693;28;20040;-70
2021/12/15 05:42:46;;;;;;;129.63;57.27;;;;;;;;;;5069985;28;20402;-71
2021/12/15 05:45:12;;;;;;;146.17;58.77;;;;;;;;;;5070436;28;20048;-70
2021/12/15 05:47:38;;;;;;;131.83;57.17;;;;;;;;;;5070400;28;20048;-70
2021/12/15 05:50:07;;;;;;;153.37;58.50;;;;;;;;;;5079304;28;20060;-70
2021/12/15 05:52:33;;;;;;;136.57;58.80;;;;;;;;;;5088461;28;20036;-70
2021/12/15 05:55:00;;;;;;;142.20;57.30;;;;;;;;;;5069542;28;20044;-70
2021/12/15 05:57:26;;;;;;;134.20;56.97;;;;;;;;;;5068823;28;20044;-70
2021/12/15 05:59:52;;;;;;;148.10;57.70;;;;;;;;;;5068210;28;20070;-70
2021/12/15 06:02:18;;;;;;;136.03;56.47;;;;;;;;;;5058947;28;20048;-70
2021/12/15 06:04:44;;;;;;;123.63;56.50;;;;;;;;;;5088164;28;20040;-70
2021/12/15 06:07:10;;;;;;;143.77;59.40;;;;;;;;;;5079834;28;20032;-70
2021/12/15 06:09:36;;;;;;;127.57;58.10;;;;;;;;;;5069910;28;20070;-70
2021/12/15 06:12:03;;;;;;;136.83;58.47;;;;;;;;;;5064081;28;20037;-70
2021/12/15 06:14:30;;;;;;;133.33;56.83;;;;;;;;;;5067413;28;20040;-70
2021/12/15 06:17:00;;;;;;;130.40;56.50;;;;;;;;;;5065134;28;20056;-70
2021/12/15 06:19:27;;;;;;;153.77;59.27;;;;;;;;;;5058011;28;20086;-70
2021/12/15 06:21:53;;;;;;;134.90;61.07;;;;;;;;;;5077335;28;20047;-70
2021/12/15 06:24:19;;;;;;;153.00;59.60;;;;;;;;;;5073403;28;20045;-70
2021/12/15 06:26:45;;;;;;;145.60;57.30;;;;;;;;;;5084892;28;20405;-70
2021/12/15 06:29:11;;;;;;;158.87;59.97;;;;;;;;;;5065681;28;20052;-70
2021/12/15 06:31:38;;;;;;;138.63;57.10;;;;;;;;;;5079501;28;20047;-70
2021/12/15 06:34:04;;;;;;;140.37;57.10;;;;;;;;;;5055285;28;20040;-70
2021/12/15 06:36:32;;;;;;;144.57;57.40;;;;;;;;;;5091902;28;20773;-70
2021/12/15 06:38:58;;;;;;;139.13;56.83;;;;;;;;;;5090036;28;20052;-71
2021/12/15 06:41:24;;;;;;;144.40;55.97;;;;;;;;;;5060391;28;20323;-70
2021/12/15 06:43:54;;;;;;;136.33;56.57;;;;;;;;;;5087264;28;20181;-70
2021/12/15 06:46:50;;;;;;;135.40;53.00;;;;;;;;;;5039826;28;20147;-71
2021/12/15 06:58:10;;;;;;;137.27;55.93;;;;;;;;;;5079548;28;20047;-70
2021/12/15 07:00:14;;;;;;;139.30;54.40;;;;;;;;;;5070753;28;20037;-71
2021/12/15 07:02:40;;;;;;;140.33;56.97;;;;;;;;;;5053293;28;20072;-70
2021/12/15 07:05:11;;;;;;;157.03;57.53;;;;;;;;;;5061182;28;20040;-72
2021/12/15 07:07:38;;;;;;;123.30;51.43;;;;;;;;;;5081697;28;20040;-70
2021/12/15 07:10:04;;;;;;;154.13;55.23;;;;;;;;;;5076118;28;20048;-71
2021/12/15 07:12:30;;;;;;;150.60;55.13;;;;;;;;;;5053690;28;20045;-71
2021/12/15 07:14:56;;;;;;;117.90;52.33;;;;;;;;;;5090468;28;20097;-70
2021/12/15 07:17:24;;;;;;;138.03;54.70;;;;;;;;;;5063667;28;20047;-70
2021/12/15 07:20:27;;;;;;;119.40;53.87;;;;;;;;;;5090917;28;20129;-70
2021/12/15 07:22:48;;;;;;;120.13;52.13;;;;;;;;;;5082386;28;20094;-70
2021/12/15 07:25:15;;;;;;;117.47;54.13;;;;;;;;;;5068532;28;20402;-70
2021/12/15 07:27:41;;;;;;;125.20;52.13;;;;;;;;;;5090859;28;20126;-70
2021/12/15 07:30:08;;;;;;;121.67;52.47;;;;;;;;;;5089073;28;20040;-70
2021/12/15 07:32:34;;;;;;;121.43;52.23;;;;;;;;;;5070832;28;20051;-70
2021/12/15 07:35:00;;;;;;;119.23;52.50;;;;;;;;;;5070590;28;20048;-70
2021/12/15 07:37:26;;;;;;;125.50;51.60;;;;;;;;;;5091422;28;20529;-70
2021/12/15 07:39:59;;;;;;;123.63;49.97;;;;;;;;;;5090166;28;20083;-70
2021/12/15 07:42:42;;;;;;;131.00;50.30;;;;;;;;;;5049061;28;20078;-70
2021/12/15 07:52:04;;;;;;;117.90;48.63;;;;;;;;;;5086884;28;20031;-70
2021/12/15 07:54:32;;;;;;;124.03;49.37;;;;;;;;;;5089894;28;20048;-71
2021/12/15 07:56:58;;;;;;;127.43;49.63;;;;;;;;;;5081804;28;20048;-70
2021/12/15 07:59:25;;;;;;;114.70;49.87;;;;;;;;;;5087233;28;20038;-70
2021/12/15 08:01:51;;;;;;;105.70;46.77;;;;;;;;;;5088486;28;20044;-70
2021/12/15 08:04:18;;;;;;;111.97;48.07;;;;;;;;;;5090147;28;20054;-70
2021/12/15 08:06:47;;;;;;;111.80;48.40;;;;;;;;;;5075662;28;20503;-71
2021/12/15 08:09:14;;;;;;;106.27;46.70;;;;;;;;;;5069172;28;20055;-70
2021/12/15 08:11:40;;;;;;;113.30;47.53;;;;;;;;;;5085608;28;20040;-70
2021/12/15 08:14:06;;;;;;;113.57;47.17;;;;;;;;;;5088958;28;20524;-71
2021/12/15 08:16:33;;;;;;;114.37;46.13;;;;;;;;;;5089724;28;20055;-70
2021/12/15 08:18:59;;;;;;;125.30;50.20;;;;;;;;;;5088328;28;20040;-71
2021/12/15 08:21:25;;;;;;;105.07;47.70;;;;;;;;;;5051723;28;20057;-71
2021/12/15 08:23:51;;;;;;;107.50;45.93;;;;;;;;;;5078703;28;20828;-70
2021/12/15 08:26:17;;;;;;;108.87;47.80;;;;;;;;;;5062212;28;20052;-70
2021/12/15 08:28:43;;;;;;;107.83;45.30;;;;;;;;;;5088959;28;20049;-70
2021/12/15 08:31:09;;;;;;;109.90;47.00;;;;;;;;;;5071108;28;20186;-70
2021/12/15 08:33:36;;;;;;;109.33;47.07;;;;;;;;;;5088394;28;20561;-71
2021/12/15 08:36:10;;;;;;;99.63;45.93;;;;;;;;;;5071428;28;20055;-71
2021/12/15 08:38:38;;;;;;;111.93;44.83;;;;;;;;;;5070359;28;20056;-71
2021/12/15 08:41:06;;;;;;;108.47;44.87;;;;;;;;;;5089061;28;20048;-71
2021/12/15 08:43:32;;;;;;;120.27;47.77;;;;;;;;;;5070719;28;20047;-71
2021/12/15 08:46:09;;;;;;;101.90;44.73;;;;;;;;;;5062782;28;20084;-71
2021/12/15 08:48:37;;;;;;;102.73;43.93;;;;;;;;;;5089250;28;20433;-71
2021/12/15 08:51:04;;;;;;;103.17;45.77;;;;;;;;;;5088974;28;20048;-71
2021/12/15 08:53:30;;;;;;;116.73;45.70;;;;;;;;;;5089529;28;20097;-70
2021/12/15 08:55:56;;;;;;;116.20;46.47;;;;;;;;;;5070204;28;20044;-71
2021/12/15 08:58:23;;;;;;;97.37;44.73;;;;;;;;;;5068921;28;20502;-71
2021/12/15 09:00:50;;;;;;;110.17;45.70;;;;;;;;;;5069840;28;20048;-71
2021/12/15 09:03:17;;;;;;;94.37;41.73;;;;;;;;;;5062267;28;20052;-71
2021/12/15 09:05:44;;;;;;;105.93;45.13;;;;;;;;;;5070808;28;20067;-71
2021/12/15 09:08:11;;;;;;;95.93;42.83;;;;;;;;;;5069839;28;20405;-71
2021/12/15 09:10:39;;;;;;;101.00;44.63;;;;;;;;;;5070290;28;20036;-71
2021/12/15 09:13:05;;;;;;;105.23;44.50;;;;;;;;;;5088168;28;20044;-71
2021/12/15 09:15:32;;;;;;;99.83;43.37;;;;;;;;;;5087904;28;20122;-71
2021/12/15 09:17:58;;;;;;;93.13;41.43;;;;;;;;;;5088409;28;20055;-71
2021/12/15 09:20:26;;;;;;;86.10;42.07;;;;;;;;;;5045655;28;20039;-71
2021/12/15 09:22:52;;;;;;;107.03;41.97;;;;;;;;;;5088124;28;20059;-71
2021/12/15 09:25:18;;;;;;;90.33;41.13;;;;;;;;;;5062042;28;20051;-71
2021/12/15 09:27:45;;;;;;;78.93;37.13;;;;;;;;;;5087773;28;20051;-71
2021/12/15 09:30:15;;;;;;;84.03;38.97;;;;;;;;;;5069604;28;20131;-71
2021/12/15 09:32:41;;;;;;;87.73;39.47;;;;;;;;;;5088726;28;20044;-71
2021/12/15 09:35:08;;;;;;;91.27;39.17;;;;;;;;;;5088869;28;20044;-71
2021/12/15 09:37:34;;;;;;;79.87;38.10;;;;;;;;;;5088809;28;20101;-71
2021/12/15 09:40:00;;;;;;;75.33;39.13;;;;;;;;;;5070317;28;20048;-71
2021/12/15 09:42:34;;;;;;;78.20;39.30;;;;;;;;;;5064351;28;20040;-71
2021/12/15 09:45:17;;;;;;;81.33;38.33;;;;;;;;;;5070136;28;20040;-71
2021/12/15 10:07:05;;;;;;;90.03;40.13;;;;;;;;;;5061478;28;20176;-71
2021/12/15 10:12:23;;;;;;;99.43;41.30;;;;;;;;;;5091332;28;20044;-71
2021/12/15 10:17:45;;;;;;;97.37;39.93;;;;;;;;;;5083081;28;20052;-71
2021/12/15 10:20:20;;;;;;;77.80;35.57;;;;;;;;;;5075244;28;20072;-71
2021/12/15 10:22:48;;;;;;;89.20;38.43;;;;;;;;;;5069920;28;20109;-72
2021/12/15 10:25:20;;;;;;;78.97;38.30;;;;;;;;;;5037454;28;20098;-72
2021/12/15 10:27:46;;;;;;;73.27;35.00;;;;;;;;;;5054385;28;20048;-72
2021/12/15 10:30:15;;;;;;;70.53;31.57;;;;;;;;;;5047780;28;20048;-72
2021/12/15 10:32:42;;;;;;;69.20;31.73;;;;;;;;;;5051355;28;20517;-72
2021/12/15 10:35:08;;;;;;;69.20;33.63;;;;;;;;;;5072163;28;20159;-71
2021/12/15 10:37:34;;;;;;;71.67;34.73;;;;;;;;;;5057062;28;20502;-72
2021/12/15 10:40:19;;;;;;;69.80;35.27;;;;;;;;;;5070488;28;20517;-71
2021/12/15 10:42:46;;;;;;;74.20;36.17;;;;;;;;;;5061175;28;20398;-72
2021/12/15 10:45:13;;;;;;;79.50;33.93;;;;;;;;;;5059738;28;20045;-72
2021/12/15 10:47:41;;;;;;;70.70;33.50;;;;;;;;;;5055748;28;20406;-72
2021/12/15 10:50:11;;;;;;;68.67;34.57;;;;;;;;;;5068845;28;20131;-72
2021/12/15 10:52:49;;;;;;;74.80;35.47;;;;;;;;;;5088277;28;20561;-72
2021/12/15 10:55:15;;;;;;;72.03;32.97;;;;;;;;;;5072182;28;20055;-72
2021/12/15 10:57:44;;;;;;;66.87;33.17;;;;;;;;;;5061910;28;20403;-72
2021/12/15 11:00:11;;;;;;;66.50;31.00;;;;;;;;;;5071954;28;20060;-72
2021/12/15 11:02:38;;;;;;;65.90;33.60;;;;;;;;;;5071348;28;20444;-72
2021/12/15 11:05:06;;;;;;;73.53;31.70;;;;;;;;;;5087286;28;20044;-72
2021/12/15 11:07:44;;;;;;;66.47;33.47;;;;;;;;;;5054407;28;20044;-72
2021/12/15 11:10:26;;;;;;;64.10;31.97;;;;;;;;;;5078888;28;20040;-72
2021/12/15 11:12:58;;;;;;;63.80;32.33;;;;;;;;;;5071483;28;20036;-72
2021/12/15 11:15:40;;;;;;;70.40;32.37;;;;;;;;;;5071459;28;20121;-72
2021/12/15 11:18:16;;;;;;;63.70;32.77;;;;;;;;;;5080357;28;20600;-71
2021/12/15 11:21:04;;;;;;;64.53;32.67;;;;;;;;;;5075686;28;20522;-72
2021/12/15 11:23:31;;;;;;;67.17;33.50;;;;;;;;;;5061775;28;20052;-72
2021/12/15 11:25:58;;;;;;;66.33;32.10;;;;;;;;;;5070663;28;20043;-72
2021/12/15 11:28:26;;;;;;;66.83;32.97;;;;;;;;;;5072507;28;20937;-72
2021/12/15 11:30:58;;;;;;;64.40;32.57;;;;;;;;;;5088589;28;20048;-72
2021/12/15 11:33:26;;;;;;;58.77;29.23;;;;;;;;;;5070038;28;20050;-72
2021/12/15 11:35:54;;;;;;;66.17;30.77;;;;;;;;;;5068479;28;20101;-72
2021/12/15 11:38:28;;;;;;;55.53;28.73;;;;;;;;;;5084353;28;20055;-72
2021/12/15 11:40:54;;;;;;;57.93;30.33;;;;;;;;;;5068773;28;20036;-71
2021/12/15 11:43:28;;;;;;;50.53;28.67;;;;;;;;;;5074887;28;20055;-72
2021/12/15 11:45:54;;;;;;;54.03;28.30;;;;;;;;;;5070896;28;20115;-72
2021/12/15 11:48:22;;;;;;;41.27;24.93;;;;;;;;;;5071232;28;20066;-72
2021/12/15 11:50:50;;;;;;;46.00;26.13;;;;;;;;;;5067097;28;20456;-71
2021/12/15 11:53:24;;;;;;;41.67;24.40;;;;;;;;;;5069935;28;20733;-72
2021/12/15 11:55:50;;;;;;;43.43;21.33;;;;;;;;;;5053832;28;20043;-72
2021/12/15 11:58:28;;;;;;;35.47;21.03;;;;;;;;;;5069913;28;20143;-72
2021/12/15 12:00:54;;;;;;;40.33;21.80;;;;;;;;;;5069246;28;20537;-72
2021/12/15 12:03:20;;;;;;;38.93;22.53;;;;;;;;;;5069029;28;20040;-71
2021/12/15 12:05:46;;;;;;;40.73;21.87;;;;;;;;;;5063553;28;20044;-72
2021/12/15 12:08:13;;;;;;;39.70;22.03;;;;;;;;;;5052036;28;20049;-72
2021/12/15 12:10:46;;;;;;;39.50;21.60;;;;;;;;;;5056040;28;20086;-72
2021/12/15 12:13:19;;;;;;;35.30;21.00;;;;;;;;;;5054727;28;20088;-72
2021/12/15 12:15:46;;;;;;;;;;;;;;;;;;5070516;28;20048;-71
2021/12/15 12:18:17;;;;;;;35.63;21.77;;;;;;;;;;5089743;28;19920;-72
2021/12/15 12:20:45;;;;;;;37.73;20.43;;;;;;;;;;5068790;28;20051;-72
2021/12/15 12:23:14;;;;;;;40.03;22.80;;;;;;;;;;5070877;28;20702;-72
2021/12/15 12:25:42;;;;;;;38.17;21.93;;;;;;;;;;5089581;28;20044;-72
2021/12/15 12:28:13;;;;;;;41.50;19.57;;;;;;;;;;5070500;28;20055;-72
2021/12/15 12:30:41;;;;;;;37.23;20.53;;;;;;;;;;5089518;28;20055;-72
2021/12/15 12:33:09;;;;;;;36.93;20.10;;;;;;;;;;5070846;28;20048;-71
2021/12/15 12:35:38;;;;;;;30.43;19.30;;;;;;;;;;5069824;28;20091;-72
2021/12/15 12:38:33;;;;;;;36.67;19.37;;;;;;;;;;5071038;28;20040;-72
2021/12/15 12:41:06;;;;;;;44.13;19.37;;;;;;;;;;5046462;28;20052;-72
2021/12/15 12:43:33;;;;;;;30.90;18.92;;;;;;;;;;5077646;28;20032;-72
2021/12/15 12:46:09;;;;;;;32.67;21.13;;;;;;;;;;5081305;28;20097;-72
2021/12/15 12:59:36;;;;;;;37.50;20.90;;;;;;;;;;5089193;28;20040;-72
2021/12/15 13:02:06;;;;;;;39.27;20.87;;;;;;;;;;5070208;28;20055;-72
2021/12/15 13:04:36;;;;;;;38.93;20.13;;;;;;;;;;5087838;28;20048;-71
2021/12/15 13:07:03;;;;;;;32.83;20.03;;;;;;;;;;5070940;28;20417;-72
2021/12/15 13:09:41;;;;;;;36.13;20.33;;;;;;;;;;5088021;28;20548;-71
2021/12/15 13:12:25;;;;;;;31.87;18.00;;;;;;;;;;5053550;28;20040;-72
2021/12/15 13:14:51;;;;;;;32.22;19.20;;;;;;;;;;5069774;28;20584;-71
2021/12/15 13:17:22;;;;;;;31.50;17.57;;;;;;;;;;5084675;28;20105;-72
2021/12/15 13:19:48;;;;;;;32.90;18.10;;;;;;;;;;5069381;28;20060;-71
2021/12/15 13:22:22;;;;;;;27.63;15.70;;;;;;;;;;5069953;28;20059;-71
2021/12/15 13:30:31;;;;;;;25.87;13.77;;;;;;;;;;5068467;28;20436;-71
2021/12/15 13:33:05;;;;;;;37.53;13.27;;;;;;;;;;5049840;28;20056;-72
2021/12/15 13:35:36;;;;;;;24.03;13.67;;;;;;;;;;5069946;28;20051;-71
2021/12/15 13:38:02;;;;;;;23.53;12.43;;;;;;;;;;5088152;28;20032;-72
2021/12/15 13:40:47;;;;;;;27.10;11.37;;;;;;;;;;5070445;28;20131;-72
2021/12/15 13:43:52;;;;;;;19.90;10.47;;;;;;;;;;5067895;28;20051;-72
2021/12/15 13:46:37;;;;;;;24.70;11.37;;;;;;;;;;5025272;28;20099;-71
2021/12/15 13:49:03;;;;;;;19.80;9.53;;;;;;;;;;5008262;28;20127;-72
2021/12/15 13:51:51;;;;;;;21.03;9.53;;;;;;;;;;5050723;28;20091;-72
2021/12/15 13:54:22;;;;;;;21.13;7.50;;;;;;;;;;5082103;28;20043;-71
2021/12/15 13:56:52;;;;;;;17.77;8.43;;;;;;;;;;5069081;28;20044;-72
2021/12/15 13:59:30;;;;;;;19.87;7.93;;;;;;;;;;5070255;28;20493;-71
2021/12/15 14:02:11;;;;;;;13.57;7.37;;;;;;;;;;5069049;28;20067;-71
2021/12/15 14:04:45;;;;;;;14.90;6.97;;;;;;;;;;5068088;28;20060;-71
2021/12/15 14:07:34;;;;;;;19.77;7.87;;;;;;;;;;5068060;28;20543;-71
2021/12/15 14:10:18;;;;;;;16.43;5.97;;;;;;;;;;5057811;28;20567;-71
2021/12/15 14:12:47;;;;;;;23.40;7.10;;;;;;;;;;5070349;28;20055;-71
2021/12/15 14:15:14;;;;;;;20.73;7.43;;;;;;;;;;5052972;28;20052;-71
2021/12/15 14:17:40;;;;;;;19.30;8.40;;;;;;;;;;5087349;28;20080;-71
2021/12/15 14:20:14;;;;;;;10.60;5.50;;;;;;;;;;5067919;28;20044;-71
2021/12/15 14:22:41;;;;;;;8.90;4.33;;;;;;;;;;5086978;28;20043;-71
2021/12/15 14:25:07;;;;;;;7.50;3.80;;;;;;;;;;5068284;28;20516;-71
2021/12/15 14:27:33;;;;;;;7.53;2.90;;;;;;;;;;5067348;28;20056;-71
2021/12/15 14:29:59;;;;;;;9.00;2.83;;;;;;;;;;5068376;28;20056;-72
2021/12/15 14:32:25;;;;;;;4.90;2.80;;;;;;;;;;5086875;28;20115;-71
2021/12/15 14:34:53;;;;;;;5.13;2.10;;;;;;;;;;5081698;28;20062;-71
2021/12/15 14:37:20;;;;;;;5.57;2.37;;;;;;;;;;5044458;28;20054;-71
2021/12/15 14:39:47;;;;;;;5.13;1.73;;;;;;;;;;5069421;28;20059;-71
2021/12/15 14:42:21;;;;;;;7.17;1.70;;;;;;;;;;5069761;28;20044;-71
2021/12/15 14:44:47;;;;;;;;;;;;;;;;;;5069432;28;20040;-71
2021/12/15 14:47:15;;;;;;;6.13;1.60;;;;;;;;;;5067831;28;19920;-72
2021/12/15 14:49:41;;;;;;;5.93;1.60;;;;;;;;;;5069048;28;20055;-71
2021/12/15 14:52:12;;;;;;;5.67;1.70;;;;;;;;;;5069847;28;20040;-71
2021/12/15 14:54:39;;;;;;;7.10;1.43;;;;;;;;;;5069270;28;20071;-71
2021/12/15 14:57:11;;;;;;;6.80;1.43;;;;;;;;;;5056528;28;20493;-71
2021/12/15 14:59:43;;;;;;;8.83;1.63;;;;;;;;;;5041874;28;20060;-71
2021/12/15 15:02:11;;;;;;;4.97;1.47;;;;;;;;;;5053561;28;20477;-71
2021/12/15 15:04:38;;;;;;;4.80;1.87;;;;;;;;;;5084058;28;20087;-71
2021/12/15 15:07:06;;;;;;;7.43;2.07;;;;;;;;;;5089599;28;20083;-72
2021/12/15 15:09:37;;;;;;;4.60;1.33;;;;;;;;;;5090942;28;20055;-72
2021/12/15 15:12:06;;;;;;;6.00;1.60;;;;;;;;;;5071755;28;20052;-71
2021/12/15 15:14:35;;;;;;;5.10;1.23;;;;;;;;;;5090860;28;20052;-71
2021/12/15 15:17:01;;;;;;;3.87;1.30;;;;;;;;;;5072711;28;20060;-71
2021/12/15 15:19:29;;;;;;;5.80;1.20;;;;;;;;;;5089189;28;20048;-71
2021/12/15 15:21:57;;;;;;;5.37;1.80;;;;;;;;;;5072984;28;20043;-71
2021/12/15 15:24:29;;;;;;;5.47;1.40;;;;;;;;;;5071668;28;20044;-71
2021/12/15 15:27:00;;;;;;;5.20;1.50;;;;;;;;;;5072134;28;20520;-71
2021/12/15 15:29:30;;;;;;;6.87;1.90;;;;;;;;;;5052252;28;20140;-71
2021/12/15 15:31:56;;;;;;;9.07;2.03;;;;;;;;;;5070636;28;20090;-71
2021/12/15 15:34:26;;;;;;;3.40;1.30;;;;;;;;;;5089972;28;20081;-72
2021/12/15 15:36:52;;;;;;;7.00;1.80;;;;;;;;;;5072590;28;20051;-71
2021/12/15 15:39:18;;;;;;;9.90;1.63;;;;;;;;;;5071219;28;20051;-71
2021/12/15 15:41:47;;;;;;;4.13;1.40;;;;;;;;;;5072466;28;20044;-71
2021/12/15 15:44:14;;;;;;;4.07;1.30;;;;;;;;;;5071468;28;20044;-71
2021/12/15 15:46:42;;;;;;;6.23;1.13;;;;;;;;;;5072302;28;20083;-71
2021/12/15 15:49:10;;;;;;;5.50;1.17;;;;;;;;;;5084119;28;20102;-71
2021/12/15 15:51:37;;;;;;;3.93;1.70;;;;;;;;;;5051910;28;20041;-71